sensor_id;sensor_type;location;lat;lon;timestamp;temperature;humidity
12089;DHT22;6107;49.078;8.578;2023-08-01T00:01:50;17.30;99.90
12089;DHT22;6107;49.078;8.578;2023-08-01T00:04:16;17.40;99.90
12089;DHT22;6107;49.078;8.578;2023-08-01T00:06:42;17.30;99.90
12089;DHT22;6107;49.078;8.578;2023-08-01T00:09:07;17.30;99.90
12089;DHT22;6107;49.078;8.578;2023-08-01T00:11:33;17.40;99.90
12089;DHT22;6107;49.078;8.578;2023-08-01T00:13:58;17.50;99.90
12089;DHT22;6107;49.078;8.578;2023-08-01T00:16:24;17.50;99.90
12089;DHT22;6107;49.078;8.578;2023-08-01T00:18:49;17.40;99.90
12089;DHT22;6107;49.078;8.578;2023-08-01T00:21:15;17.40;99.90
12089;DHT22;6107;49.078;8.578;2023-08-01T00:23:41;17.40;99.90
12089;DHT22;6107;49.078;8.578;2023-08-01T00:26:06;17.40;99.90
12089;DHT22;6107;49.078;8.578;2023-08-01T00:28:32;17.30;99.90
12089;DHT22;6107;49.078;8.578;2023-08-01T00:31:07;17.30;99.90
12089;DHT22;6107;49.078;8.578;2023-08-01T00:33:36;17.40;99.90
12089;DHT22;6107;49.078;8.578;2023-08-01T00:36:02;17.40;99.90
12089;DHT22;6107;49.078;8.578;2023-08-01T00:38:28;17.30;99.90
12089;DHT22;6107;49.078;8.578;2023-08-01T00:40:54;17.40;99.90
12089;DHT22;6107;49.078;8.578;2023-08-01T00:43:19;17.40;99.90
12089;DHT22;6107;49.078;8.578;2023-08-01T00:45:45;17.40;99.90
12089;DHT22;6107;49.078;8.578;2023-08-01T00:48:11;17.40;99.90
12089;DHT22;6107;49.078;8.578;2023-08-01T00:50:38;17.40;99.90
12089;DHT22;6107;49.078;8.578;2023-08-01T00:53:04;17.40;99.90
12089;DHT22;6107;49.078;8.578;2023-08-01T00:55:32;17.50;99.90
12089;DHT22;6107;49.078;8.578;2023-08-01T00:57:59;17.50;99.90
12089;DHT22;6107;49.078;8.578;2023-08-01T01:00:25;17.50;99.90
12089;DHT22;6107;49.078;8.578;2023-08-01T01:02:50;17.50;99.90
12089;DHT22;6107;49.078;8.578;2023-08-01T01:05:16;17.50;99.90
12089;DHT22;6107;49.078;8.578;2023-08-01T01:07:41;17.50;99.90
12089;DHT22;6107;49.078;8.578;2023-08-01T01:10:09;17.50;99.90
12089;DHT22;6107;49.078;8.578;2023-08-01T01:12:34;17.60;99.90
12089;DHT22;6107;49.078;8.578;2023-08-01T01:15:00;17.60;99.90
12089;DHT22;6107;49.078;8.578;2023-08-01T01:17:25;17.90;99.90
12089;DHT22;6107;49.078;8.578;2023-08-01T01:19:51;18.00;99.90
12089;DHT22;6107;49.078;8.578;2023-08-01T01:22:17;17.90;99.90
12089;DHT22;6107;49.078;8.578;2023-08-01T01:24:44;18.00;99.90
12089;DHT22;6107;49.078;8.578;2023-08-01T01:27:11;17.90;99.90
12089;DHT22;6107;49.078;8.578;2023-08-01T01:29:38;17.70;99.90
12089;DHT22;6107;49.078;8.578;2023-08-01T01:32:05;17.70;99.90
12089;DHT22;6107;49.078;8.578;2023-08-01T01:34:31;17.60;99.90
12089;DHT22;6107;49.078;8.578;2023-08-01T01:36:57;17.50;99.90
12089;DHT22;6107;49.078;8.578;2023-08-01T01:39:22;17.50;99.90
12089;DHT22;6107;49.078;8.578;2023-08-01T01:41:48;17.50;99.90
12089;DHT22;6107;49.078;8.578;2023-08-01T01:44:13;17.50;99.90
12089;DHT22;6107;49.078;8.578;2023-08-01T01:46:39;17.50;99.90
12089;DHT22;6107;49.078;8.578;2023-08-01T01:49:04;17.50;99.90
12089;DHT22;6107;49.078;8.578;2023-08-01T01:51:30;17.50;99.90
12089;DHT22;6107;49.078;8.578;2023-08-01T01:53:56;17.60;99.90
12089;DHT22;6107;49.078;8.578;2023-08-01T01:56:21;17.50;99.90
12089;DHT22;6107;49.078;8.578;2023-08-01T01:58:47;17.60;99.90
12089;DHT22;6107;49.078;8.578;2023-08-01T02:01:13;17.70;99.90
12089;DHT22;6107;49.078;8.578;2023-08-01T02:03:38;17.70;99.90
12089;DHT22;6107;49.078;8.578;2023-08-01T02:06:04;17.70;99.90
12089;DHT22;6107;49.078;8.578;2023-08-01T02:08:30;17.70;99.90
12089;DHT22;6107;49.078;8.578;2023-08-01T02:10:56;17.80;99.90
12089;DHT22;6107;49.078;8.578;2023-08-01T02:13:27;17.80;99.90
12089;DHT22;6107;49.078;8.578;2023-08-01T02:15:53;17.70;99.90
12089;DHT22;6107;49.078;8.578;2023-08-01T02:18:19;17.70;99.90
12089;DHT22;6107;49.078;8.578;2023-08-01T02:20:44;17.70;99.90
12089;DHT22;6107;49.078;8.578;2023-08-01T02:23:10;17.70;99.90
12089;DHT22;6107;49.078;8.578;2023-08-01T02:25:40;17.80;99.90
12089;DHT22;6107;49.078;8.578;2023-08-01T02:28:06;17.80;99.90
12089;DHT22;6107;49.078;8.578;2023-08-01T02:30:31;17.90;99.90
12089;DHT22;6107;49.078;8.578;2023-08-01T02:32:57;17.80;99.90
12089;DHT22;6107;49.078;8.578;2023-08-01T02:35:22;17.70;99.90
12089;DHT22;6107;49.078;8.578;2023-08-01T02:37:48;17.70;99.90
12089;DHT22;6107;49.078;8.578;2023-08-01T02:40:13;17.60;99.90
12089;DHT22;6107;49.078;8.578;2023-08-01T02:42:39;17.60;99.90
12089;DHT22;6107;49.078;8.578;2023-08-01T02:45:05;17.50;99.90
12089;DHT22;6107;49.078;8.578;2023-08-01T02:47:30;17.60;99.90
12089;DHT22;6107;49.078;8.578;2023-08-01T02:49:56;17.60;99.90
12089;DHT22;6107;49.078;8.578;2023-08-01T02:52:22;17.60;99.90
12089;DHT22;6107;49.078;8.578;2023-08-01T02:54:47;17.70;99.90
12089;DHT22;6107;49.078;8.578;2023-08-01T02:57:13;17.70;99.90
12089;DHT22;6107;49.078;8.578;2023-08-01T02:59:38;17.60;99.90
12089;DHT22;6107;49.078;8.578;2023-08-01T03:02:04;17.60;99.90
12089;DHT22;6107;49.078;8.578;2023-08-01T03:04:29;17.60;99.90
12089;DHT22;6107;49.078;8.578;2023-08-01T03:06:55;17.60;99.90
12089;DHT22;6107;49.078;8.578;2023-08-01T03:09:20;17.50;99.90
12089;DHT22;6107;49.078;8.578;2023-08-01T03:11:46;17.50;99.90
12089;DHT22;6107;49.078;8.578;2023-08-01T03:14:11;17.50;99.90
12089;DHT22;6107;49.078;8.578;2023-08-01T03:16:37;17.50;99.90
12089;DHT22;6107;49.078;8.578;2023-08-01T03:19:03;17.50;99.90
12089;DHT22;6107;49.078;8.578;2023-08-01T03:21:33;17.40;99.90
12089;DHT22;6107;49.078;8.578;2023-08-01T03:24:00;17.50;99.90
12089;DHT22;6107;49.078;8.578;2023-08-01T03:26:26;17.50;99.90
12089;DHT22;6107;49.078;8.578;2023-08-01T03:28:54;17.50;99.90
12089;DHT22;6107;49.078;8.578;2023-08-01T03:31:21;17.60;99.90
12089;DHT22;6107;49.078;8.578;2023-08-01T03:33:46;17.50;99.90
12089;DHT22;6107;49.078;8.578;2023-08-01T03:36:12;17.50;99.90
12089;DHT22;6107;49.078;8.578;2023-08-01T03:38:38;17.50;99.90
12089;DHT22;6107;49.078;8.578;2023-08-01T03:41:04;17.70;99.90
12089;DHT22;6107;49.078;8.578;2023-08-01T03:43:29;17.70;99.90
12089;DHT22;6107;49.078;8.578;2023-08-01T03:45:55;17.70;99.90
12089;DHT22;6107;49.078;8.578;2023-08-01T03:48:20;17.50;99.90
12089;DHT22;6107;49.078;8.578;2023-08-01T03:50:46;17.50;99.90
12089;DHT22;6107;49.078;8.578;2023-08-01T03:53:12;17.50;99.90
12089;DHT22;6107;49.078;8.578;2023-08-01T03:55:37;17.50;99.90
12089;DHT22;6107;49.078;8.578;2023-08-01T03:58:03;17.30;99.90
12089;DHT22;6107;49.078;8.578;2023-08-01T04:00:28;17.30;99.90
12089;DHT22;6107;49.078;8.578;2023-08-01T04:03:00;17.20;99.90
12089;DHT22;6107;49.078;8.578;2023-08-01T04:05:27;17.30;99.90
12089;DHT22;6107;49.078;8.578;2023-08-01T04:07:53;17.40;99.90
12089;DHT22;6107;49.078;8.578;2023-08-01T04:10:20;17.50;99.90
12089;DHT22;6107;49.078;8.578;2023-08-01T04:12:46;17.50;99.90
12089;DHT22;6107;49.078;8.578;2023-08-01T04:15:12;17.40;99.90
12089;DHT22;6107;49.078;8.578;2023-08-01T04:17:37;17.40;99.90
12089;DHT22;6107;49.078;8.578;2023-08-01T04:20:03;17.50;99.90
12089;DHT22;6107;49.078;8.578;2023-08-01T04:22:28;17.60;99.90
12089;DHT22;6107;49.078;8.578;2023-08-01T04:24:54;17.50;99.90
12089;DHT22;6107;49.078;8.578;2023-08-01T04:27:19;17.50;99.90
12089;DHT22;6107;49.078;8.578;2023-08-01T04:29:45;17.50;99.90
12089;DHT22;6107;49.078;8.578;2023-08-01T04:32:11;17.50;99.90
12089;DHT22;6107;49.078;8.578;2023-08-01T04:34:39;17.50;99.90
12089;DHT22;6107;49.078;8.578;2023-08-01T04:37:05;17.50;99.90
12089;DHT22;6107;49.078;8.578;2023-08-01T04:39:30;17.60;99.90
12089;DHT22;6107;49.078;8.578;2023-08-01T04:41:56;17.50;99.90
12089;DHT22;6107;49.078;8.578;2023-08-01T04:44:21;17.50;99.90
12089;DHT22;6107;49.078;8.578;2023-08-01T04:46:48;17.50;99.90
12089;DHT22;6107;49.078;8.578;2023-08-01T04:49:14;17.60;99.90
12089;DHT22;6107;49.078;8.578;2023-08-01T04:51:39;17.70;99.90
12089;DHT22;6107;49.078;8.578;2023-08-01T04:54:05;17.70;99.90
12089;DHT22;6107;49.078;8.578;2023-08-01T04:56:31;17.60;99.90
12089;DHT22;6107;49.078;8.578;2023-08-01T04:58:56;17.60;99.90
12089;DHT22;6107;49.078;8.578;2023-08-01T05:01:22;17.50;99.90
12089;DHT22;6107;49.078;8.578;2023-08-01T05:03:48;17.50;99.90
12089;DHT22;6107;49.078;8.578;2023-08-01T05:06:13;17.50;99.90
12089;DHT22;6107;49.078;8.578;2023-08-01T05:08:39;17.50;99.90
12089;DHT22;6107;49.078;8.578;2023-08-01T05:11:04;17.50;99.90
12089;DHT22;6107;49.078;8.578;2023-08-01T05:13:30;17.50;99.90
12089;DHT22;6107;49.078;8.578;2023-08-01T05:15:55;17.50;99.90
12089;DHT22;6107;49.078;8.578;2023-08-01T05:18:21;17.40;99.90
12089;DHT22;6107;49.078;8.578;2023-08-01T05:20:46;17.50;99.90
12089;DHT22;6107;49.078;8.578;2023-08-01T05:23:12;17.40;99.90
12089;DHT22;6107;49.078;8.578;2023-08-01T05:25:37;17.50;99.90
12089;DHT22;6107;49.078;8.578;2023-08-01T05:28:03;17.40;99.90
12089;DHT22;6107;49.078;8.578;2023-08-01T05:30:29;17.40;99.90
12089;DHT22;6107;49.078;8.578;2023-08-01T05:32:54;17.50;99.90
12089;DHT22;6107;49.078;8.578;2023-08-01T05:35:20;17.50;99.90
12089;DHT22;6107;49.078;8.578;2023-08-01T05:37:46;17.50;99.90
12089;DHT22;6107;49.078;8.578;2023-08-01T05:40:12;17.50;99.90
12089;DHT22;6107;49.078;8.578;2023-08-01T05:42:38;17.50;99.90
12089;DHT22;6107;49.078;8.578;2023-08-01T05:45:04;17.50;99.90
12089;DHT22;6107;49.078;8.578;2023-08-01T05:47:30;17.40;99.90
12089;DHT22;6107;49.078;8.578;2023-08-01T05:49:55;17.40;99.90
12089;DHT22;6107;49.078;8.578;2023-08-01T05:52:21;17.20;99.90
12089;DHT22;6107;49.078;8.578;2023-08-01T05:54:47;17.20;99.90
12089;DHT22;6107;49.078;8.578;2023-08-01T05:57:12;17.20;99.90
12089;DHT22;6107;49.078;8.578;2023-08-01T05:59:38;17.20;99.90
12089;DHT22;6107;49.078;8.578;2023-08-01T06:02:04;17.20;99.90
12089;DHT22;6107;49.078;8.578;2023-08-01T06:04:29;17.20;99.90
12089;DHT22;6107;49.078;8.578;2023-08-01T06:06:55;17.10;99.90
12089;DHT22;6107;49.078;8.578;2023-08-01T06:09:21;17.10;99.90
12089;DHT22;6107;49.078;8.578;2023-08-01T06:11:47;17.10;99.90
12089;DHT22;6107;49.078;8.578;2023-08-01T06:14:13;17.10;99.90
12089;DHT22;6107;49.078;8.578;2023-08-01T06:16:38;17.10;99.90
12089;DHT22;6107;49.078;8.578;2023-08-01T06:19:04;17.00;99.90
12089;DHT22;6107;49.078;8.578;2023-08-01T06:21:29;17.00;99.90
12089;DHT22;6107;49.078;8.578;2023-08-01T06:23:55;17.10;99.90
12089;DHT22;6107;49.078;8.578;2023-08-01T06:28:46;16.90;99.90
12089;DHT22;6107;49.078;8.578;2023-08-01T06:31:12;16.90;99.90
12089;DHT22;6107;49.078;8.578;2023-08-01T06:33:38;16.80;99.90
12089;DHT22;6107;49.078;8.578;2023-08-01T06:36:04;16.80;99.90
12089;DHT22;6107;49.078;8.578;2023-08-01T06:38:30;16.70;99.90
12089;DHT22;6107;49.078;8.578;2023-08-01T06:40:55;16.70;99.90
12089;DHT22;6107;49.078;8.578;2023-08-01T06:43:21;16.70;99.90
12089;DHT22;6107;49.078;8.578;2023-08-01T06:45:46;16.70;99.90
12089;DHT22;6107;49.078;8.578;2023-08-01T06:48:12;16.80;99.90
12089;DHT22;6107;49.078;8.578;2023-08-01T06:50:37;16.70;99.90
12089;DHT22;6107;49.078;8.578;2023-08-01T06:53:03;16.80;99.90
12089;DHT22;6107;49.078;8.578;2023-08-01T06:55:28;16.70;99.90
12089;DHT22;6107;49.078;8.578;2023-08-01T06:57:54;16.80;99.90
12089;DHT22;6107;49.078;8.578;2023-08-01T07:00:19;16.80;99.90
12089;DHT22;6107;49.078;8.578;2023-08-01T07:02:45;16.90;99.90
12089;DHT22;6107;49.078;8.578;2023-08-01T07:05:10;17.00;99.90
12089;DHT22;6107;49.078;8.578;2023-08-01T07:07:36;17.10;99.90
12089;DHT22;6107;49.078;8.578;2023-08-01T07:10:02;17.30;99.90
12089;DHT22;6107;49.078;8.578;2023-08-01T07:12:27;17.20;99.90
12089;DHT22;6107;49.078;8.578;2023-08-01T07:14:53;17.50;99.90
12089;DHT22;6107;49.078;8.578;2023-08-01T07:17:21;17.20;99.90
12089;DHT22;6107;49.078;8.578;2023-08-01T07:22:13;17.20;99.90
12089;DHT22;6107;49.078;8.578;2023-08-01T07:24:39;17.30;99.90
12089;DHT22;6107;49.078;8.578;2023-08-01T07:27:04;17.30;99.90
12089;DHT22;6107;49.078;8.578;2023-08-01T07:29:30;17.40;99.90
12089;DHT22;6107;49.078;8.578;2023-08-01T07:31:55;17.40;99.90
12089;DHT22;6107;49.078;8.578;2023-08-01T07:34:21;17.20;99.90
12089;DHT22;6107;49.078;8.578;2023-08-01T07:36:48;17.20;99.90
12089;DHT22;6107;49.078;8.578;2023-08-01T07:39:14;17.10;99.90
12089;DHT22;6107;49.078;8.578;2023-08-01T07:41:40;17.40;99.90
12089;DHT22;6107;49.078;8.578;2023-08-01T07:44:05;17.30;99.90
12089;DHT22;6107;49.078;8.578;2023-08-01T07:46:32;17.20;99.90
12089;DHT22;6107;49.078;8.578;2023-08-01T07:48:57;18.20;99.90
12089;DHT22;6107;49.078;8.578;2023-08-01T07:51:25;17.20;99.90
12089;DHT22;6107;49.078;8.578;2023-08-01T07:56:17;17.30;99.90
12089;DHT22;6107;49.078;8.578;2023-08-01T07:58:43;17.30;99.90
12089;DHT22;6107;49.078;8.578;2023-08-01T08:01:09;17.40;99.90
12089;DHT22;6107;49.078;8.578;2023-08-01T08:03:34;17.40;99.90
12089;DHT22;6107;49.078;8.578;2023-08-01T08:06:00;17.60;99.90
12089;DHT22;6107;49.078;8.578;2023-08-01T08:08:26;17.50;99.90
12089;DHT22;6107;49.078;8.578;2023-08-01T08:10:52;17.40;99.90
12089;DHT22;6107;49.078;8.578;2023-08-01T08:13:17;17.30;99.90
12089;DHT22;6107;49.078;8.578;2023-08-01T08:15:43;17.40;99.90
12089;DHT22;6107;49.078;8.578;2023-08-01T08:18:09;17.30;99.90
12089;DHT22;6107;49.078;8.578;2023-08-01T08:20:44;17.20;99.90
12089;DHT22;6107;49.078;8.578;2023-08-01T08:23:10;17.20;99.90
12089;DHT22;6107;49.078;8.578;2023-08-01T08:28:02;17.30;99.90
12089;DHT22;6107;49.078;8.578;2023-08-01T08:30:28;17.50;99.90
12089;DHT22;6107;49.078;8.578;2023-08-01T08:32:53;18.00;99.90
12089;DHT22;6107;49.078;8.578;2023-08-01T08:35:19;17.80;99.90
12089;DHT22;6107;49.078;8.578;2023-08-01T08:37:45;17.80;99.90
12089;DHT22;6107;49.078;8.578;2023-08-01T08:40:12;17.80;99.90
12089;DHT22;6107;49.078;8.578;2023-08-01T08:42:39;17.80;99.90
12089;DHT22;6107;49.078;8.578;2023-08-01T08:45:06;17.80;99.90
12089;DHT22;6107;49.078;8.578;2023-08-01T08:47:36;17.80;99.90
12089;DHT22;6107;49.078;8.578;2023-08-01T08:50:02;17.90;99.90
12089;DHT22;6107;49.078;8.578;2023-08-01T08:52:27;18.00;99.90
12089;DHT22;6107;49.078;8.578;2023-08-01T08:54:53;17.80;99.90
12089;DHT22;6107;49.078;8.578;2023-08-01T08:57:20;17.90;99.90
12089;DHT22;6107;49.078;8.578;2023-08-01T08:59:47;18.20;99.90
12089;DHT22;6107;49.078;8.578;2023-08-01T09:02:15;18.20;99.90
12089;DHT22;6107;49.078;8.578;2023-08-01T09:04:41;18.50;99.90
12089;DHT22;6107;49.078;8.578;2023-08-01T09:07:10;18.40;99.90
12089;DHT22;6107;49.078;8.578;2023-08-01T09:09:37;18.40;99.90
12089;DHT22;6107;49.078;8.578;2023-08-01T09:12:03;18.40;99.90
12089;DHT22;6107;49.078;8.578;2023-08-01T09:14:29;18.50;99.90
12089;DHT22;6107;49.078;8.578;2023-08-01T09:16:55;19.00;99.90
12089;DHT22;6107;49.078;8.578;2023-08-01T09:19:22;19.20;99.90
12089;DHT22;6107;49.078;8.578;2023-08-01T09:21:49;19.30;99.90
12089;DHT22;6107;49.078;8.578;2023-08-01T09:24:17;19.80;99.90
12089;DHT22;6107;49.078;8.578;2023-08-01T09:26:45;19.60;99.90
12089;DHT22;6107;49.078;8.578;2023-08-01T09:29:11;19.70;99.90
12089;DHT22;6107;49.078;8.578;2023-08-01T09:31:41;19.70;99.90
12089;DHT22;6107;49.078;8.578;2023-08-01T09:34:22;19.60;99.90
12089;DHT22;6107;49.078;8.578;2023-08-01T09:36:49;19.70;99.90
12089;DHT22;6107;49.078;8.578;2023-08-01T09:39:17;19.60;99.90
12089;DHT22;6107;49.078;8.578;2023-08-01T09:41:43;19.30;99.90
12089;DHT22;6107;49.078;8.578;2023-08-01T09:44:16;19.30;99.90
12089;DHT22;6107;49.078;8.578;2023-08-01T09:46:42;19.20;99.90
12089;DHT22;6107;49.078;8.578;2023-08-01T09:49:12;19.30;99.90
12089;DHT22;6107;49.078;8.578;2023-08-01T09:51:50;19.60;99.90
12089;DHT22;6107;49.078;8.578;2023-08-01T09:54:17;20.10;99.90
12089;DHT22;6107;49.078;8.578;2023-08-01T09:56:48;20.20;99.90
12089;DHT22;6107;49.078;8.578;2023-08-01T09:59:21;20.50;99.90
12089;DHT22;6107;49.078;8.578;2023-08-01T10:01:48;20.80;99.90
12089;DHT22;6107;49.078;8.578;2023-08-01T10:04:20;20.40;99.90
12089;DHT22;6107;49.078;8.578;2023-08-01T10:06:49;20.50;99.90
12089;DHT22;6107;49.078;8.578;2023-08-01T10:09:17;20.80;99.90
12089;DHT22;6107;49.078;8.578;2023-08-01T10:11:43;21.10;99.90
12089;DHT22;6107;49.078;8.578;2023-08-01T10:14:09;21.00;99.90
12089;DHT22;6107;49.078;8.578;2023-08-01T10:16:36;21.40;99.90
12089;DHT22;6107;49.078;8.578;2023-08-01T10:19:02;21.40;99.90
12089;DHT22;6107;49.078;8.578;2023-08-01T10:21:28;21.40;99.90
12089;DHT22;6107;49.078;8.578;2023-08-01T10:23:55;21.80;99.90
12089;DHT22;6107;49.078;8.578;2023-08-01T10:26:23;21.60;99.90
12089;DHT22;6107;49.078;8.578;2023-08-01T10:28:51;21.30;99.90
12089;DHT22;6107;49.078;8.578;2023-08-01T10:31:18;21.80;99.90
12089;DHT22;6107;49.078;8.578;2023-08-01T10:33:47;22.00;99.90
12089;DHT22;6107;49.078;8.578;2023-08-01T10:36:20;22.10;99.90
12089;DHT22;6107;49.078;8.578;2023-08-01T10:38:50;22.10;99.90
12089;DHT22;6107;49.078;8.578;2023-08-01T10:43:51;21.50;99.90
12089;DHT22;6107;49.078;8.578;2023-08-01T10:46:17;21.80;99.90
12089;DHT22;6107;49.078;8.578;2023-08-01T10:48:52;22.20;99.90
12089;DHT22;6107;49.078;8.578;2023-08-01T10:51:18;22.40;99.90
12089;DHT22;6107;49.078;8.578;2023-08-01T10:53:44;22.50;99.90
12089;DHT22;6107;49.078;8.578;2023-08-01T10:56:20;22.10;99.90
12089;DHT22;6107;49.078;8.578;2023-08-01T10:58:47;22.50;99.90
12089;DHT22;6107;49.078;8.578;2023-08-01T11:01:12;23.10;99.90
12089;DHT22;6107;49.078;8.578;2023-08-01T11:03:39;22.70;99.90
12089;DHT22;6107;49.078;8.578;2023-08-01T11:06:05;22.60;99.90
12089;DHT22;6107;49.078;8.578;2023-08-01T11:08:38;22.90;99.90
12089;DHT22;6107;49.078;8.578;2023-08-01T11:26:09;22.20;99.90
12089;DHT22;6107;49.078;8.578;2023-08-01T11:28:35;21.90;99.90
12089;DHT22;6107;49.078;8.578;2023-08-01T11:31:00;21.20;99.90
12089;DHT22;6107;49.078;8.578;2023-08-01T11:33:26;21.00;99.90
12089;DHT22;6107;49.078;8.578;2023-08-01T11:35:53;21.10;99.90
12089;DHT22;6107;49.078;8.578;2023-08-01T11:38:22;21.00;99.90
12089;DHT22;6107;49.078;8.578;2023-08-01T11:40:52;21.10;99.90
12089;DHT22;6107;49.078;8.578;2023-08-01T11:43:18;21.00;99.90
12089;DHT22;6107;49.078;8.578;2023-08-01T11:45:55;21.60;99.90
12089;DHT22;6107;49.078;8.578;2023-08-01T11:48:22;21.60;99.90
12089;DHT22;6107;49.078;8.578;2023-08-01T11:50:48;21.60;99.90
12089;DHT22;6107;49.078;8.578;2023-08-01T11:53:21;22.20;99.90
12089;DHT22;6107;49.078;8.578;2023-08-01T11:55:47;22.10;99.90
12089;DHT22;6107;49.078;8.578;2023-08-01T12:00:40;23.10;99.90
12089;DHT22;6107;49.078;8.578;2023-08-01T12:03:08;23.00;99.90
12089;DHT22;6107;49.078;8.578;2023-08-01T12:05:38;23.10;99.90
12089;DHT22;6107;49.078;8.578;2023-08-01T12:08:13;23.20;99.90
12089;DHT22;6107;49.078;8.578;2023-08-01T12:13:21;22.80;99.90
12089;DHT22;6107;49.078;8.578;2023-08-01T12:15:55;23.60;99.90
12089;DHT22;6107;49.078;8.578;2023-08-01T12:20:51;24.00;99.90
12089;DHT22;6107;49.078;8.578;2023-08-01T12:23:16;23.70;99.90
12089;DHT22;6107;49.078;8.578;2023-08-01T12:25:42;22.80;99.90
12089;DHT22;6107;49.078;8.578;2023-08-01T12:28:08;23.50;99.90
12089;DHT22;6107;49.078;8.578;2023-08-01T12:30:33;23.50;99.90
12089;DHT22;6107;49.078;8.578;2023-08-01T12:32:59;23.50;99.90
12089;DHT22;6107;49.078;8.578;2023-08-01T12:35:26;23.80;99.90
12089;DHT22;6107;49.078;8.578;2023-08-01T12:37:52;23.50;99.90
12089;DHT22;6107;49.078;8.578;2023-08-01T12:40:19;22.90;99.90
12089;DHT22;6107;49.078;8.578;2023-08-01T12:42:44;23.50;99.90
12089;DHT22;6107;49.078;8.578;2023-08-01T12:45:10;24.30;99.90
12089;DHT22;6107;49.078;8.578;2023-08-01T12:47:35;24.30;99.90
12089;DHT22;6107;49.078;8.578;2023-08-01T12:50:01;23.80;99.90
12089;DHT22;6107;49.078;8.578;2023-08-01T12:52:27;23.70;99.90
12089;DHT22;6107;49.078;8.578;2023-08-01T12:54:52;23.70;99.90
12089;DHT22;6107;49.078;8.578;2023-08-01T12:57:18;23.90;99.90
12089;DHT22;6107;49.078;8.578;2023-08-01T12:59:44;23.80;99.90
12089;DHT22;6107;49.078;8.578;2023-08-01T13:02:10;22.90;99.90
12089;DHT22;6107;49.078;8.578;2023-08-01T13:04:35;23.20;99.90
12089;DHT22;6107;49.078;8.578;2023-08-01T13:07:01;23.80;99.90
12089;DHT22;6107;49.078;8.578;2023-08-01T13:09:26;24.50;99.90
12089;DHT22;6107;49.078;8.578;2023-08-01T13:11:52;23.80;99.90
12089;DHT22;6107;49.078;8.578;2023-08-01T13:16:44;24.70;99.90
12089;DHT22;6107;49.078;8.578;2023-08-01T13:19:10;24.70;99.90
12089;DHT22;6107;49.078;8.578;2023-08-01T13:21:35;24.50;99.90
12089;DHT22;6107;49.078;8.578;2023-08-01T13:24:01;24.00;99.90
12089;DHT22;6107;49.078;8.578;2023-08-01T13:26:31;24.30;99.90
12089;DHT22;6107;49.078;8.578;2023-08-01T13:28:57;24.50;99.90
12089;DHT22;6107;49.078;8.578;2023-08-01T13:31:23;25.10;99.90
12089;DHT22;6107;49.078;8.578;2023-08-01T13:33:49;25.30;99.90
12089;DHT22;6107;49.078;8.578;2023-08-01T13:36:14;24.80;99.90
12089;DHT22;6107;49.078;8.578;2023-08-01T13:38:40;25.10;99.90
12089;DHT22;6107;49.078;8.578;2023-08-01T13:41:05;24.80;99.90
12089;DHT22;6107;49.078;8.578;2023-08-01T13:48:23;25.20;99.90
12089;DHT22;6107;49.078;8.578;2023-08-01T13:50:48;25.00;99.90
12089;DHT22;6107;49.078;8.578;2023-08-01T13:53:14;24.80;99.90
12089;DHT22;6107;49.078;8.578;2023-08-01T13:55:40;25.30;99.90
12089;DHT22;6107;49.078;8.578;2023-08-01T13:58:06;24.80;99.90
12089;DHT22;6107;49.078;8.578;2023-08-01T14:02:58;24.00;99.90
12089;DHT22;6107;49.078;8.578;2023-08-01T14:05:25;23.90;99.90
12089;DHT22;6107;49.078;8.578;2023-08-01T14:07:52;23.70;99.90
12089;DHT22;6107;49.078;8.578;2023-08-01T14:10:17;24.40;99.90
12089;DHT22;6107;49.078;8.578;2023-08-01T14:12:43;25.10;99.90
12089;DHT22;6107;49.078;8.578;2023-08-01T14:15:09;24.30;99.90
12089;DHT22;6107;49.078;8.578;2023-08-01T14:17:35;24.10;99.90
12089;DHT22;6107;49.078;8.578;2023-08-01T14:20:01;23.90;99.90
12089;DHT22;6107;49.078;8.578;2023-08-01T14:22:29;24.20;99.90
12089;DHT22;6107;49.078;8.578;2023-08-01T14:24:54;24.70;99.90
12089;DHT22;6107;49.078;8.578;2023-08-01T14:27:20;24.90;99.90
12089;DHT22;6107;49.078;8.578;2023-08-01T14:29:45;24.90;99.90
12089;DHT22;6107;49.078;8.578;2023-08-01T14:32:11;24.80;99.90
12089;DHT22;6107;49.078;8.578;2023-08-01T14:34:38;24.70;99.90
12089;DHT22;6107;49.078;8.578;2023-08-01T14:39:29;23.80;99.90
12089;DHT22;6107;49.078;8.578;2023-08-01T14:41:55;23.90;99.90
12089;DHT22;6107;49.078;8.578;2023-08-01T14:44:20;23.70;99.90
12089;DHT22;6107;49.078;8.578;2023-08-01T14:46:46;23.60;99.90
12089;DHT22;6107;49.078;8.578;2023-08-01T14:49:12;23.10;99.90
12089;DHT22;6107;49.078;8.578;2023-08-01T14:51:38;23.20;99.90
12089;DHT22;6107;49.078;8.578;2023-08-01T14:54:03;23.20;99.90
12089;DHT22;6107;49.078;8.578;2023-08-01T14:56:29;23.60;99.90
12089;DHT22;6107;49.078;8.578;2023-08-01T14:58:55;23.90;99.90
12089;DHT22;6107;49.078;8.578;2023-08-01T15:01:21;24.80;99.90
12089;DHT22;6107;49.078;8.578;2023-08-01T15:03:46;25.00;99.90
12089;DHT22;6107;49.078;8.578;2023-08-01T15:06:12;24.40;99.90
12089;DHT22;6107;49.078;8.578;2023-08-01T15:08:40;25.30;99.90
12089;DHT22;6107;49.078;8.578;2023-08-01T15:11:07;25.00;99.90
12089;DHT22;6107;49.078;8.578;2023-08-01T15:13:34;25.10;99.90
12089;DHT22;6107;49.078;8.578;2023-08-01T15:15:59;25.10;99.90
12089;DHT22;6107;49.078;8.578;2023-08-01T15:18:29;25.20;99.90
12089;DHT22;6107;49.078;8.578;2023-08-01T15:20:54;23.90;99.90
12089;DHT22;6107;49.078;8.578;2023-08-01T15:23:20;23.90;99.90
12089;DHT22;6107;49.078;8.578;2023-08-01T15:25:53;24.70;99.90
12089;DHT22;6107;49.078;8.578;2023-08-01T15:28:18;24.80;99.90
12089;DHT22;6107;49.078;8.578;2023-08-01T15:30:44;24.80;99.90
12089;DHT22;6107;49.078;8.578;2023-08-01T15:33:09;25.40;99.90
12089;DHT22;6107;49.078;8.578;2023-08-01T15:35:35;24.80;99.90
12089;DHT22;6107;49.078;8.578;2023-08-01T15:38:01;24.60;99.90
12089;DHT22;6107;49.078;8.578;2023-08-01T15:40:26;24.60;99.90
12089;DHT22;6107;49.078;8.578;2023-08-01T15:42:52;24.20;99.90
12089;DHT22;6107;49.078;8.578;2023-08-01T15:47:43;24.00;99.90
12089;DHT22;6107;49.078;8.578;2023-08-01T15:50:09;23.50;99.90
12089;DHT22;6107;49.078;8.578;2023-08-01T15:52:34;23.20;99.90
12089;DHT22;6107;49.078;8.578;2023-08-01T15:55:00;23.20;99.90
12089;DHT22;6107;49.078;8.578;2023-08-01T15:57:25;23.20;99.90
12089;DHT22;6107;49.078;8.578;2023-08-01T15:59:51;23.80;99.90
12089;DHT22;6107;49.078;8.578;2023-08-01T16:02:16;24.50;99.90
12089;DHT22;6107;49.078;8.578;2023-08-01T16:04:42;24.70;99.90
12089;DHT22;6107;49.078;8.578;2023-08-01T16:07:07;24.80;99.90
12089;DHT22;6107;49.078;8.578;2023-08-01T16:09:33;24.90;99.90
12089;DHT22;6107;49.078;8.578;2023-08-01T16:11:58;24.90;99.90
12089;DHT22;6107;49.078;8.578;2023-08-01T16:16:50;24.30;99.90
12089;DHT22;6107;49.078;8.578;2023-08-01T16:21:42;24.40;99.90
12089;DHT22;6107;49.078;8.578;2023-08-01T16:26:33;23.90;99.90
12089;DHT22;6107;49.078;8.578;2023-08-01T16:28:59;23.40;99.90
12089;DHT22;6107;49.078;8.578;2023-08-01T16:31:24;23.10;99.90
12089;DHT22;6107;49.078;8.578;2023-08-01T16:36:16;23.00;99.90
12089;DHT22;6107;49.078;8.578;2023-08-01T16:38:42;22.90;99.90